createdAt,value
2019-05-10T00:01:44.194Z,20.05
2019-05-10T00:04:36.839Z,19.45
2019-05-10T00:07:34.240Z,19.25
2019-05-10T00:10:07.373Z,19.67
2019-05-10T00:12:51.728Z,19.12
2019-05-10T00:15:27.599Z,20.17
2019-05-10T00:18:02.830Z,19.10
2019-05-10T00:20:37.649Z,17.92
2019-05-10T00:23:13.019Z,17.87
2019-05-10T00:25:47.409Z,18.95
2019-05-10T00:28:22.324Z,18.48
2019-05-10T00:30:57.166Z,19.17
2019-05-10T00:33:31.221Z,19.77
2019-05-10T00:36:05.640Z,19.48
2019-05-10T00:38:40.603Z,18.45
2019-05-10T00:43:47.226Z,17.95
2019-05-10T00:46:21.138Z,18.35
2019-05-10T00:48:55.553Z,18.35
2019-05-10T00:51:30.072Z,17.95
2019-05-10T00:54:04.040Z,18.52
2019-05-10T00:56:38.303Z,23.55
2019-05-10T00:59:13.872Z,18.55
2019-05-10T01:01:47.965Z,16.55
2019-05-10T01:04:22.445Z,17.43
2019-05-10T01:06:56.705Z,19.07
2019-05-10T01:09:30.994Z,17.37
2019-05-10T01:12:05.263Z,17.42
2019-05-10T01:14:40.338Z,16.07
2019-05-10T01:19:47.260Z,16.45
2019-05-10T01:22:21.646Z,16.40
2019-05-10T01:24:56.395Z,17.43
2019-05-10T01:27:30.216Z,15.43
2019-05-10T01:30:04.834Z,16.37
2019-05-10T01:32:38.946Z,15.40
2019-05-10T01:35:13.011Z,15.87
2019-05-10T01:37:47.470Z,15.20
2019-05-10T01:40:21.474Z,15.18
2019-05-10T01:42:55.408Z,15.43
2019-05-10T01:45:29.940Z,16.17
2019-05-10T01:48:04.986Z,15.45
2019-05-10T01:53:14.060Z,14.75
2019-05-10T01:55:52.440Z,14.73
2019-05-10T01:58:26.520Z,15.63
2019-05-10T02:01:02.434Z,15.60
2019-05-10T02:03:36.872Z,15.45
2019-05-10T02:06:10.555Z,14.90
2019-05-10T02:08:44.839Z,15.72
2019-05-10T02:11:19.370Z,15.20
2019-05-10T02:13:53.403Z,14.98
2019-05-10T02:16:27.829Z,15.63
2019-05-10T02:19:01.792Z,15.18
2019-05-10T02:21:35.835Z,14.63
2019-05-10T02:24:10.647Z,13.72
2019-05-10T02:26:45.519Z,14.95
2019-05-10T02:29:20.578Z,14.43
2019-05-10T02:31:54.536Z,14.75
2019-05-10T02:34:29.388Z,15.25
2019-05-10T02:37:03.412Z,14.47
2019-05-10T02:39:37.447Z,13.03
2019-05-10T02:42:11.448Z,14.07
2019-05-10T02:44:45.759Z,14.45
2019-05-10T02:47:19.809Z,14.07
2019-05-10T02:49:59.055Z,13.60
2019-05-10T02:52:32.652Z,12.85
2019-05-10T02:55:07.635Z,13.75
2019-05-10T02:57:41.995Z,13.45
2019-05-10T03:00:17.088Z,13.70
2019-05-10T03:02:51.952Z,12.80
2019-05-10T03:05:28.388Z,12.75
2019-05-10T03:08:03.722Z,14.30
2019-05-10T03:10:38.630Z,12.98
2019-05-10T03:15:46.809Z,13.00
2019-05-10T03:18:23.597Z,13.30
2019-05-10T03:20:59.926Z,13.10
2019-05-10T03:23:34.802Z,12.68
2019-05-10T03:26:09.069Z,12.93
2019-05-10T03:28:44.786Z,13.20
2019-05-10T03:31:18.369Z,13.50
2019-05-10T03:33:56.350Z,12.45
2019-05-10T03:36:28.051Z,12.63
2019-05-10T03:39:02.197Z,12.57
2019-05-10T03:41:35.984Z,12.43
2019-05-10T03:44:10.579Z,11.97
2019-05-10T03:46:44.530Z,12.13
2019-05-10T03:49:18.934Z,11.40
2019-05-10T03:51:53.050Z,12.82
2019-05-10T03:54:27.456Z,12.80
2019-05-10T03:57:13.057Z,11.90
2019-05-10T03:59:39.807Z,12.30
2019-05-10T04:02:13.745Z,12.15
2019-05-10T04:04:47.871Z,10.68
2019-05-10T04:07:22.167Z,11.08
2019-05-10T04:09:56.146Z,10.35
2019-05-10T04:12:30.290Z,10.93
2019-05-10T04:15:04.131Z,10.53
2019-05-10T04:17:38.541Z,10.13
2019-05-10T04:20:13.042Z,10.28
2019-05-10T04:22:49.756Z,10.32
2019-05-10T04:25:24.725Z,9.68
2019-05-10T04:27:59.162Z,9.88
2019-05-10T04:30:34.608Z,9.90
2019-05-10T04:33:09.273Z,9.60
2019-05-10T04:35:43.730Z,9.55
2019-05-10T04:38:19.477Z,9.15
2019-05-10T04:40:55.279Z,9.35
2019-05-10T04:43:30.670Z,8.93
2019-05-10T04:46:05.143Z,9.43
2019-05-10T04:48:40.763Z,8.80
2019-05-10T04:51:16.064Z,8.00
2019-05-10T04:53:50.848Z,9.03
2019-05-10T04:56:25.699Z,9.58
2019-05-10T04:59:00.827Z,9.93
2019-05-10T05:01:36.674Z,8.47
2019-05-10T05:04:11.723Z,9.30
2019-05-10T05:06:47.314Z,7.78
2019-05-10T05:09:21.400Z,7.50
2019-05-10T05:11:55.276Z,7.50
2019-05-10T05:14:30.292Z,6.05
2019-05-10T05:19:40.872Z,7.35
2019-05-10T05:22:20.512Z,6.87
2019-05-10T05:25:01.055Z,7.12
2019-05-10T05:27:32.251Z,7.50
2019-05-10T05:30:08.117Z,7.47
2019-05-10T05:32:44.377Z,8.05
2019-05-10T05:35:19.324Z,9.03
2019-05-10T05:37:53.309Z,7.97
2019-05-10T05:40:28.555Z,7.55
2019-05-10T05:43:08.220Z,8.50
2019-05-10T05:45:39.944Z,7.78
2019-05-10T05:48:16.165Z,7.85
2019-05-10T05:50:51.543Z,8.15
2019-05-10T05:53:25.749Z,8.18
2019-05-10T05:56:03.661Z,9.00
2019-05-10T05:58:44.274Z,11.15
2019-05-10T06:01:24.381Z,9.70
2019-05-10T06:03:51.357Z,9.10
2019-05-10T06:06:27.840Z,8.23
2019-05-10T06:09:35.341Z,7.58
2019-05-10T06:15:03.076Z,7.80
2019-05-10T06:17:37.328Z,7.75
2019-05-10T06:20:13.019Z,7.83
2019-05-10T06:23:04.153Z,8.65
2019-05-10T06:25:37.757Z,8.05
2019-05-10T06:27:59.399Z,7.70
2019-05-10T06:30:39.710Z,7.92
2019-05-10T06:33:17.355Z,7.80
2019-05-10T06:35:53.984Z,7.37
2019-05-10T06:38:30.048Z,6.78
2019-05-10T06:41:09.985Z,6.97
2019-05-10T06:43:51.403Z,6.50
2019-05-10T06:46:29.681Z,6.70
2019-05-10T06:49:08.109Z,8.40
2019-05-10T06:51:42.601Z,6.45
2019-05-10T06:54:14.800Z,6.90
2019-05-10T06:56:49.602Z,7.03
2019-05-10T06:59:25.000Z,5.37
2019-05-10T07:02:01.405Z,6.28
2019-05-10T07:04:40.792Z,6.65
2019-05-10T07:07:22.438Z,6.40
2019-05-10T07:10:04.293Z,6.50
2019-05-10T07:12:24.776Z,7.12
2019-05-10T07:15:03.380Z,6.33
2019-05-10T07:17:40.914Z,6.90
2019-05-10T07:20:23.582Z,6.30
2019-05-10T07:23:00.010Z,7.78
2019-05-10T07:25:37.687Z,7.05
2019-05-10T07:28:15.860Z,7.50
2019-05-10T07:30:55.102Z,8.45
2019-05-10T07:33:36.643Z,8.70
2019-05-10T07:36:14.734Z,8.15
2019-05-10T07:38:52.357Z,8.30
2019-05-10T07:41:29.269Z,8.20
2019-05-10T07:44:10.505Z,8.98
2019-05-10T07:46:46.989Z,8.93
2019-05-10T07:49:30.006Z,9.15
2019-05-10T07:52:02.776Z,9.60
2019-05-10T07:54:44.917Z,8.28
2019-05-10T07:57:13.304Z,8.35
2019-05-10T07:59:50.669Z,9.35
2019-05-10T08:02:23.678Z,8.63
2019-05-10T08:04:58.460Z,8.95
2019-05-10T08:10:18.697Z,9.30
2019-05-10T08:12:52.568Z,9.60
2019-05-10T08:15:30.544Z,9.13
2019-05-10T08:18:15.379Z,9.38
2019-05-10T08:20:53.887Z,9.20
2019-05-10T08:23:27.927Z,10.23
2019-05-10T08:26:04.552Z,10.00
2019-05-10T08:28:42.222Z,10.18
2019-05-10T08:31:15.705Z,9.75
2019-05-10T08:33:56.083Z,9.00
2019-05-10T08:36:25.833Z,9.75
2019-05-10T08:39:07.624Z,9.75
2019-05-10T08:41:38.137Z,9.20
2019-05-10T08:44:19.296Z,10.60
2019-05-10T08:46:49.117Z,9.18
2019-05-10T08:51:56.942Z,10.58
2019-05-10T08:54:32.836Z,9.53
2019-05-10T08:57:07.835Z,9.65
2019-05-10T08:59:42.686Z,9.93
2019-05-10T09:04:55.629Z,10.72
2019-05-10T09:07:33.982Z,10.38
2019-05-10T09:10:04.882Z,10.00
2019-05-10T09:12:50.530Z,10.60
2019-05-10T09:15:22.996Z,10.03
2019-05-10T09:18:03.284Z,10.60
2019-05-10T09:20:34.416Z,9.75
2019-05-10T09:23:15.262Z,10.30
2019-05-10T09:25:45.136Z,10.30
2019-05-10T09:28:19.213Z,11.22
2019-05-10T09:31:00.409Z,11.35
2019-05-10T09:33:28.854Z,11.63
2019-05-10T09:36:06.579Z,11.90
2019-05-10T09:38:43.422Z,11.22
2019-05-10T09:41:27.798Z,11.85
2019-05-10T09:44:02.835Z,10.70
2019-05-10T09:46:36.911Z,10.55
2019-05-10T09:49:17.582Z,10.50
2019-05-10T09:51:49.769Z,9.80
2019-05-10T09:54:29.590Z,10.80
2019-05-10T09:56:59.839Z,10.95
2019-05-10T09:59:33.781Z,10.85
2019-05-10T10:02:14.357Z,9.93
2019-05-10T10:04:43.645Z,15.35
2019-05-10T10:07:19.010Z,10.95
2019-05-10T10:09:53.847Z,31.20
2019-05-10T10:12:28.926Z,14.35
2019-05-10T10:15:02.994Z,12.93
2019-05-10T10:17:42.181Z,14.28
2019-05-10T10:20:15.042Z,12.85
2019-05-10T10:22:55.003Z,11.30
2019-05-10T10:25:40.814Z,11.38
2019-05-10T10:28:19.086Z,13.13
2019-05-10T10:31:05.235Z,10.32
2019-05-10T10:33:42.773Z,10.03
2019-05-10T10:36:19.504Z,11.15
2019-05-10T10:38:55.292Z,11.57
2019-05-10T10:41:31.827Z,10.38
2019-05-10T10:44:07.758Z,9.48
2019-05-10T10:46:41.616Z,9.83
2019-05-10T10:49:17.761Z,9.40
2019-05-10T10:52:13.493Z,10.40
2019-05-10T10:57:22.782Z,8.33
2019-05-10T10:59:57.501Z,9.93
2019-05-10T11:02:33.898Z,9.83
2019-05-10T11:05:09.210Z,9.38
2019-05-10T11:07:47.214Z,9.58
2019-05-10T11:10:22.272Z,9.53
2019-05-10T11:13:02.870Z,9.70
2019-05-10T11:15:35.899Z,9.23
2019-05-10T11:18:09.294Z,9.05
2019-05-10T11:20:49.618Z,8.55
2019-05-10T11:23:24.505Z,10.80
2019-05-10T11:25:56.815Z,10.13
2019-05-10T11:28:38.703Z,10.25
2019-05-10T11:31:16.899Z,10.03
2019-05-10T11:33:58.505Z,9.45
2019-05-10T11:36:31.618Z,9.13
2019-05-10T11:39:25.262Z,9.68
2019-05-10T11:42:00.991Z,11.10
2019-05-10T11:44:31.854Z,8.70
2019-05-10T11:47:21.006Z,9.38
2019-05-10T11:49:42.543Z,12.33
2019-05-10T11:52:16.475Z,12.50
2019-05-10T11:54:51.355Z,11.90
2019-05-10T11:57:27.037Z,10.45
2019-05-10T12:00:14.274Z,9.68
2019-05-10T12:03:01.108Z,9.78
2019-05-10T12:05:22.802Z,10.40
2019-05-10T12:07:54.755Z,9.95
2019-05-10T12:10:29.090Z,9.73
2019-05-10T12:13:14.987Z,11.15
2019-05-10T12:15:42.864Z,10.08
2019-05-10T12:18:15.870Z,10.00
2019-05-10T12:20:58.625Z,9.83
2019-05-10T12:23:31.087Z,9.98
2019-05-10T12:28:41.628Z,10.13
2019-05-10T12:31:17.437Z,10.85
2019-05-10T12:33:51.809Z,10.58
2019-05-10T12:36:27.735Z,10.58
2019-05-10T12:39:04.988Z,11.08
2019-05-10T12:41:48.375Z,11.05
2019-05-10T12:44:20.318Z,12.33
2019-05-10T12:47:01.343Z,11.35
2019-05-10T12:49:40.985Z,10.82
2019-05-10T12:52:16.379Z,12.40
2019-05-10T12:54:51.436Z,12.15
2019-05-10T13:00:06.872Z,11.53
2019-05-10T13:02:39.457Z,13.58
2019-05-10T13:05:15.647Z,15.13
2019-05-10T13:07:51.465Z,14.18
2019-05-10T13:10:29.563Z,12.80
2019-05-10T13:13:03.963Z,11.30
2019-05-10T13:15:39.022Z,11.93
2019-05-10T13:18:14.401Z,10.60
2019-05-10T13:20:52.679Z,11.22
2019-05-10T13:23:26.894Z,11.57
2019-05-10T13:26:02.053Z,11.15
2019-05-10T13:28:37.402Z,10.53
2019-05-10T13:31:15.048Z,10.53
2019-05-10T13:33:49.133Z,11.40
2019-05-10T13:36:30.656Z,11.08
2019-05-10T13:39:03.417Z,10.78
2019-05-10T13:41:44.469Z,10.75
2019-05-10T13:44:19.766Z,11.22
2019-05-10T13:46:55.862Z,11.33
2019-05-10T13:49:32.745Z,11.90
2019-05-10T13:52:08.081Z,11.83
2019-05-10T13:54:42.406Z,11.48
2019-05-10T13:57:25.027Z,12.18
2019-05-10T14:00:03.597Z,11.57
2019-05-10T14:02:41.309Z,11.85
2019-05-10T14:05:22.487Z,12.35
2019-05-10T14:07:56.661Z,13.03
2019-05-10T14:10:33.837Z,12.25
2019-05-10T14:16:18.050Z,12.17
2019-05-10T14:18:47.882Z,12.07
2019-05-10T14:21:24.816Z,11.80
2019-05-10T14:24:00.841Z,12.82
2019-05-10T14:26:38.251Z,12.45
2019-05-10T14:29:14.086Z,12.75
2019-05-10T14:34:50.975Z,34.40
2019-05-10T14:37:28.584Z,41.83
2019-05-10T14:40:03.638Z,35.10
2019-05-10T14:45:35.870Z,33.92
2019-05-10T14:48:13.260Z,32.13
2019-05-10T14:50:51.512Z,30.02
2019-05-10T14:53:27.438Z,26.42
2019-05-10T14:56:08.168Z,24.00
2019-05-10T14:58:45.954Z,22.73
2019-05-10T15:01:27.860Z,30.27
2019-05-10T15:04:01.746Z,29.12
2019-05-10T15:06:37.049Z,25.60
2019-05-10T15:09:21.511Z,24.23
2019-05-10T15:11:56.350Z,24.47
2019-05-10T15:14:36.859Z,27.40
2019-05-10T15:17:19.757Z,27.42
2019-05-10T15:19:59.675Z,25.75
2019-05-10T15:22:48.786Z,24.20
2019-05-10T15:25:25.885Z,25.17
2019-05-10T15:28:02.529Z,24.95
2019-05-10T15:30:39.120Z,24.45
2019-05-10T15:33:16.252Z,22.85
2019-05-10T15:35:54.232Z,22.50
2019-05-10T15:38:40.607Z,23.98
2019-05-10T15:41:17.103Z,22.93
2019-05-10T15:43:56.913Z,22.07
2019-05-10T15:46:42.306Z,23.55
2019-05-10T15:49:22.646Z,22.45
2019-05-10T15:54:38.141Z,21.95
2019-05-10T15:57:20.429Z,23.00
2019-05-10T15:59:23.467Z,21.85
2019-05-10T15:59:59.218Z,18.17
2019-05-10T16:02:39.188Z,19.10
2019-05-10T16:05:29.361Z,19.23
2019-05-10T16:07:56.917Z,19.92
2019-05-10T16:10:46.029Z,19.20
2019-05-10T16:13:24.921Z,17.42
2019-05-10T16:15:59.418Z,17.00
2019-05-10T16:18:39.918Z,17.75
2019-05-10T16:21:20.207Z,17.23
2019-05-10T16:23:55.938Z,17.73
2019-05-10T16:26:30.796Z,18.55
2019-05-10T16:31:38.988Z,16.30
2019-05-10T16:34:14.110Z,16.82
2019-05-10T16:36:54.600Z,16.37
2019-05-10T16:39:32.166Z,17.30
2019-05-10T16:42:07.028Z,16.80
2019-05-10T16:44:43.691Z,17.75
2019-05-10T16:47:24.395Z,16.85
2019-05-10T16:50:02.749Z,17.55
2019-05-10T16:52:41.010Z,16.77
2019-05-10T16:55:18.487Z,17.80
2019-05-10T16:57:53.126Z,18.23
2019-05-10T17:00:32.557Z,17.25
2019-05-10T17:03:06.749Z,16.67
2019-05-10T17:05:53.111Z,17.05
2019-05-10T17:08:19.945Z,15.60
2019-05-10T17:10:54.333Z,15.25
2019-05-10T17:13:28.847Z,15.98
2019-05-10T17:16:11.541Z,15.05
2019-05-10T17:18:49.750Z,15.32
2019-05-10T17:21:22.091Z,15.58
2019-05-10T17:23:57.449Z,15.25
2019-05-10T17:26:33.701Z,15.08
2019-05-10T17:29:12.759Z,15.45
2019-05-10T17:31:47.740Z,14.07
2019-05-10T17:34:29.346Z,13.85
2019-05-10T17:37:02.378Z,14.53
2019-05-10T17:39:36.749Z,14.83
2019-05-10T17:42:12.639Z,14.65
2019-05-10T17:44:48.742Z,14.28
2019-05-10T17:47:27.054Z,14.47
2019-05-10T17:50:02.339Z,15.20
2019-05-10T17:52:39.763Z,14.43
2019-05-10T17:55:18.310Z,15.88
2019-05-10T17:57:54.834Z,14.80
2019-05-10T18:00:29.678Z,14.58
2019-05-10T18:03:03.807Z,15.40
2019-05-10T18:05:41.233Z,14.07
2019-05-10T18:08:14.390Z,15.32
2019-05-10T18:10:48.829Z,14.73
2019-05-10T18:13:22.983Z,14.58
2019-05-10T18:15:57.417Z,14.20
2019-05-10T18:18:35.891Z,14.73
2019-05-10T18:21:08.073Z,15.03
2019-05-10T18:23:42.262Z,14.78
2019-05-10T18:26:16.982Z,14.53
2019-05-10T18:28:50.915Z,14.47
2019-05-10T18:31:25.673Z,14.63
2019-05-10T18:34:00.612Z,13.35
2019-05-10T18:36:50.978Z,14.38
2019-05-10T18:39:17.824Z,14.40
2019-05-10T18:41:56.844Z,13.95
2019-05-10T18:44:51.382Z,14.58
2019-05-10T18:47:42.344Z,14.30
2019-05-10T18:50:17.461Z,13.78
2019-05-10T18:52:52.916Z,13.78
2019-05-10T18:55:30.110Z,14.10
2019-05-10T18:58:04.499Z,13.62
2019-05-10T19:00:40.282Z,12.70
2019-05-10T19:06:16.816Z,13.15
2019-05-10T19:08:51.812Z,13.78
2019-05-10T19:11:26.327Z,12.65
2019-05-10T19:14:04.693Z,13.70
2019-05-10T19:16:39.273Z,13.88
2019-05-10T19:19:17.149Z,13.75
2019-05-10T19:21:51.525Z,13.05
2019-05-10T19:24:30.482Z,12.75
2019-05-10T19:27:07.366Z,13.22
2019-05-10T19:29:38.680Z,12.58
2019-05-10T19:32:18.071Z,12.50
2019-05-10T19:34:57.378Z,13.30
2019-05-10T19:37:31.569Z,13.05
2019-05-10T19:40:01.850Z,13.28
2019-05-10T19:42:37.345Z,13.50
2019-05-10T19:45:43.238Z,14.35
2019-05-10T19:47:49.740Z,13.75
2019-05-10T19:50:30.845Z,13.18
2019-05-10T19:53:03.600Z,13.53
2019-05-10T19:55:33.476Z,13.78
2019-05-10T19:58:07.521Z,13.05
2019-05-10T20:00:41.536Z,12.85
2019-05-10T20:03:16.900Z,13.57
2019-05-10T20:05:50.735Z,13.55
2019-05-10T20:08:25.007Z,14.03
2019-05-10T20:10:58.714Z,13.85
2019-05-10T20:13:32.539Z,13.43
2019-05-10T20:16:06.406Z,13.45
2019-05-10T20:18:40.735Z,13.62
2019-05-10T20:21:14.466Z,13.65
2019-05-10T20:23:48.427Z,13.43
2019-05-10T20:26:22.435Z,12.80
2019-05-10T20:28:56.874Z,13.73
2019-05-10T20:31:31.734Z,12.95
2019-05-10T20:36:41.602Z,13.33
2019-05-10T20:39:15.365Z,12.65
2019-05-10T20:41:49.770Z,13.62
2019-05-10T20:44:25.033Z,13.80
2019-05-10T20:46:59.389Z,13.13
2019-05-10T20:49:33.280Z,13.85
2019-05-10T20:52:08.282Z,13.45
2019-05-10T20:54:42.201Z,13.05
2019-05-10T20:57:16.007Z,12.67
2019-05-10T20:59:50.413Z,12.68
2019-05-10T21:02:25.741Z,12.95
2019-05-10T21:05:02.276Z,12.20
2019-05-10T21:07:36.656Z,13.43
2019-05-10T21:10:11.240Z,13.22
2019-05-10T21:12:46.646Z,13.55
2019-05-10T21:15:21.051Z,13.83
2019-05-10T21:17:56.323Z,13.83
2019-05-10T21:20:30.456Z,14.53
2019-05-10T21:23:06.423Z,13.13
2019-05-10T21:28:13.386Z,11.78
2019-05-10T21:30:47.455Z,12.50
2019-05-10T21:33:21.679Z,11.95
2019-05-10T21:35:55.566Z,12.95
2019-05-10T21:38:33.243Z,12.60
2019-05-10T21:41:05.129Z,12.37
2019-05-10T21:43:38.960Z,12.83
2019-05-10T21:46:12.922Z,11.83
2019-05-10T21:48:47.860Z,12.47
2019-05-10T21:53:54.944Z,13.00
2019-05-10T21:56:29.911Z,13.05
2019-05-10T22:01:36.277Z,12.18
2019-05-10T22:04:12.523Z,12.45
2019-05-10T22:06:46.450Z,12.93
2019-05-10T22:09:20.814Z,12.93
2019-05-10T22:11:54.511Z,12.40
2019-05-10T22:14:28.565Z,12.75
2019-05-10T22:17:03.085Z,12.63
2019-05-10T22:19:37.158Z,12.73
2019-05-10T22:22:13.527Z,12.63
2019-05-10T22:24:47.496Z,12.80
2019-05-10T22:27:21.948Z,12.33
2019-05-10T22:29:55.712Z,13.10
2019-05-10T22:32:30.684Z,13.20
2019-05-10T22:35:05.242Z,13.25
2019-05-10T22:37:39.196Z,12.58
2019-05-10T22:40:13.640Z,12.90
2019-05-10T22:42:47.707Z,13.60
2019-05-10T22:45:23.056Z,13.17
2019-05-10T22:47:56.774Z,13.28
2019-05-10T22:50:30.641Z,13.10
2019-05-10T22:53:04.913Z,13.43
2019-05-10T22:55:38.864Z,13.22
2019-05-10T22:58:12.991Z,12.77
2019-05-10T23:00:46.975Z,13.60
2019-05-10T23:03:24.589Z,13.87
2019-05-10T23:05:57.990Z,13.85
2019-05-10T23:08:32.268Z,14.43
2019-05-10T23:11:06.472Z,14.78
2019-05-10T23:13:40.845Z,14.28
2019-05-10T23:16:14.580Z,13.53
2019-05-10T23:18:48.792Z,14.07
2019-05-10T23:21:22.801Z,12.85
2019-05-10T23:23:57.410Z,13.40
2019-05-10T23:26:31.519Z,14.23
2019-05-10T23:29:05.965Z,13.23
2019-05-10T23:31:40.412Z,12.75
2019-05-10T23:34:14.455Z,13.80
2019-05-10T23:36:49.995Z,14.70
2019-05-10T23:39:39.512Z,14.78
2019-05-10T23:42:01.345Z,14.63
2019-05-10T23:44:36.460Z,15.18
2019-05-10T23:47:10.823Z,15.23
2019-05-10T23:49:44.853Z,14.65
2019-05-10T23:52:18.609Z,15.03
2019-05-10T23:54:54.244Z,14.80
2019-05-10T23:57:28.330Z,16.02
